Time;durP1;ratioP1;P1;durP2;ratioP2;P2;SDS_P1;SDS_P2;PMS_P1;PMS_P2;Temp;Humidity;BMP_temperature;BMP_pressure;BME280_temperature;BME280_humidity;BME280_pressure;Samples;Min_cycle;Max_cycle;Signal;HPM_P1;HPM_P2
2022/01/14 00:01:20;;;;;;;1999.90;999.90;;;;;;;-1.24;64.25;102891.13;4967189;28;97576;-71
2022/01/14 00:03:48;;;;;;;1999.90;999.90;;;;;;;-1.20;63.68;102908.03;4987232;28;96851;-71
2022/01/14 00:06:17;;;;;;;1999.90;999.90;;;;;;;-1.24;64.08;102905.88;4983656;28;98943;-72
2022/01/14 00:08:45;;;;;;;1999.90;999.90;;;;;;;-1.21;63.77;102890.50;4979546;28;98530;-72
2022/01/14 00:11:17;;;;;;;1999.90;999.90;;;;;;;-1.27;64.24;102885.59;4984096;28;97355;-72
2022/01/14 00:13:55;;;;;;;1999.90;999.90;;;;;;;-1.24;64.10;102885.91;4984099;28;97738;-71
2022/01/14 00:16:22;;;;;;;1999.90;999.90;;;;;;;-1.29;64.69;102881.91;4986062;28;98152;-72
2022/01/14 00:18:50;;;;;;;1999.90;999.90;;;;;;;-1.23;64.06;102879.00;5002012;28;99368;-71
2022/01/14 00:21:19;;;;;;;1999.90;999.90;;;;;;;-1.23;64.48;102886.84;4989425;28;96727;-72
2022/01/14 00:23:51;;;;;;;1999.90;999.90;;;;;;;-1.21;64.74;102882.66;4987652;28;97329;-71
2022/01/14 00:31:55;;;;;;;1999.90;999.90;;;;;;;-1.21;64.47;102874.84;4987732;28;97294;-71
2022/01/14 00:34:23;;;;;;;1999.90;999.90;;;;;;;-1.17;64.19;102875.31;4989234;28;97075;-72
2022/01/14 00:36:52;;;;;;;1999.90;999.90;;;;;;;-1.12;64.41;102868.84;4988832;28;99365;-72
2022/01/14 00:39:20;;;;;;;1999.90;999.90;;;;;;;-1.16;64.98;102876.25;4986926;28;99723;-71
2022/01/14 00:41:47;;;;;;;1999.90;999.90;;;;;;;-1.14;64.37;102877.31;4985118;28;98384;-71
2022/01/14 00:44:17;;;;;;;1999.90;999.90;;;;;;;-1.11;64.08;102867.19;4983809;28;97464;-71
2022/01/14 00:46:46;;;;;;;1999.90;999.90;;;;;;;-1.10;63.90;102863.78;4987646;28;98436;-72
2022/01/14 00:49:15;;;;;;;1999.90;999.90;;;;;;;-1.11;64.40;102878.56;4985194;28;98984;-71
2022/01/14 00:51:43;;;;;;;1999.90;999.90;;;;;;;-1.12;63.88;102875.75;4986935;28;97034;-71
2022/01/14 00:54:13;;;;;;;1999.90;999.90;;;;;;;-1.12;64.34;102871.47;4970391;28;98233;-72
2022/01/14 00:56:48;;;;;;;1999.90;999.90;;;;;;;-1.11;64.39;102868.09;4988127;28;98123;-72
2022/01/14 00:59:16;;;;;;;1999.90;999.90;;;;;;;-1.11;64.12;102889.00;4987487;28;99189;-71
2022/01/14 01:01:45;;;;;;;1999.90;999.90;;;;;;;-1.10;64.01;102874.22;4985847;28;97000;-72
2022/01/14 01:04:15;;;;;;;1999.90;999.90;;;;;;;-1.13;64.11;102890.53;4986111;28;97446;-72
2022/01/14 01:06:43;;;;;;;1999.90;999.90;;;;;;;-1.13;64.22;102885.31;4985820;28;97842;-72
2022/01/14 01:09:14;;;;;;;1999.90;999.90;;;;;;;-1.12;64.49;102883.59;4986995;28;97568;-71
2022/01/14 01:11:48;;;;;;;1999.90;999.90;;;;;;;-1.13;64.30;102879.16;4983722;28;97023;-72
2022/01/14 01:14:20;;;;;;;1999.90;999.90;;;;;;;-1.10;64.11;102890.84;4989501;28;98378;-72
2022/01/14 01:16:59;;;;;;;1999.90;999.90;;;;;;;-1.17;64.23;102888.38;4982257;28;96840;-71
2022/01/14 01:19:27;;;;;;;1999.90;999.90;;;;;;;-1.16;64.22;102882.38;4984976;28;97659;-73
2022/01/14 01:21:54;;;;;;;1999.90;999.90;;;;;;;-1.14;64.19;102890.38;4985503;28;96980;-72
2022/01/14 01:24:35;;;;;;;1999.90;999.90;;;;;;;-1.16;64.41;102878.84;4979903;28;99446;-71
2022/01/14 01:27:07;;;;;;;1999.90;999.90;;;;;;;-1.19;64.31;102876.84;4989248;28;99303;-72
2022/01/14 01:29:49;;;;;;;1999.90;999.90;;;;;;;-1.21;64.59;102883.59;4988878;28;98740;-72
2022/01/14 01:32:17;;;;;;;1999.90;999.90;;;;;;;-1.21;64.27;102877.44;5002072;28;96750;-72
2022/01/14 01:34:45;;;;;;;1999.90;999.90;;;;;;;-1.21;64.43;102883.59;4971399;28;97223;-71
2022/01/14 01:37:12;;;;;;;1999.90;999.90;;;;;;;-1.22;64.65;102883.44;4986001;28;100368;-71
2022/01/14 01:39:41;;;;;;;1999.90;999.90;;;;;;;-1.25;64.77;102880.53;4986417;28;98837;-71
2022/01/14 01:42:10;;;;;;;1999.90;999.90;;;;;;;-1.26;64.21;102884.84;4985952;28;96830;-72
2022/01/14 01:44:43;;;;;;;1999.90;999.90;;;;;;;-1.27;64.13;102877.75;4988008;28;97135;-71
2022/01/14 01:47:11;;;;;;;1999.90;999.90;;;;;;;-1.27;64.76;102884.69;4986415;28;98887;-72
2022/01/14 01:49:39;;;;;;;1999.90;999.90;;;;;;;-1.27;64.24;102879.47;4984448;28;98133;-71
2022/01/14 01:52:08;;;;;;;1999.90;999.90;;;;;;;-1.26;64.16;102876.06;4983771;28;96840;-73
2022/01/14 01:54:36;;;;;;;1999.90;999.90;;;;;;;-1.27;64.27;102879.47;4985994;28;97792;-71
2022/01/14 01:57:05;;;;;;;1999.90;999.90;;;;;;;-1.30;64.15;102873.91;4986442;28;97889;-71
2022/01/14 01:59:33;;;;;;;1999.90;999.90;;;;;;;-1.34;64.46;102877.88;4986907;28;98878;-71
2022/01/14 02:02:02;;;;;;;1999.90;999.90;;;;;;;-1.32;64.83;102871.13;4987439;28;97480;-72
2022/01/14 02:04:30;;;;;;;1999.90;999.90;;;;;;;-1.39;65.10;102873.91;4982068;28;97340;-71
2022/01/14 02:06:58;;;;;;;1999.90;999.90;;;;;;;-1.36;64.58;102868.09;4984257;28;99239;-71
2022/01/14 02:09:26;;;;;;;1999.90;999.90;;;;;;;-1.37;64.72;102856.69;4985367;28;99978;-71
2022/01/14 02:11:54;;;;;;;1999.90;999.90;;;;;;;-1.38;65.10;102864.38;4982895;28;97618;-71
2022/01/14 02:14:40;;;;;;;1999.90;999.90;;;;;;;-1.39;64.94;102860.84;4983005;28;98936;-71
2022/01/14 02:22:49;;;;;;;1999.90;999.90;;;;;;;-1.36;64.82;102868.97;4964374;28;96853;-72
2022/01/14 02:25:27;;;;;;;1999.90;999.90;;;;;;;-1.35;64.81;102864.69;4985789;28;97404;-72
2022/01/14 02:27:57;;;;;;;1999.90;999.90;;;;;;;-1.36;64.79;102860.25;4986825;28;99404;-72
2022/01/14 02:30:26;;;;;;;1999.90;999.90;;;;;;;-1.35;64.74;102864.69;4986306;28;97693;-72
2022/01/14 02:32:53;;;;;;;1999.90;999.90;;;;;;;-1.35;64.44;102846.41;4983053;28;97085;-73
2022/01/14 02:35:23;;;;;;;1999.90;999.90;;;;;;;-1.34;64.79;102853.50;4985473;28;97218;-71
2022/01/14 02:37:51;;;;;;;1999.90;999.90;;;;;;;-1.32;64.38;102849.34;4984674;28;97623;-71
2022/01/14 02:40:20;;;;;;;1999.90;999.90;;;;;;;-1.33;64.73;102845.81;4967475;28;99267;-71
2022/01/14 02:42:48;;;;;;;1999.90;999.90;;;;;;;-1.33;64.84;102844.88;4985930;28;97203;-71
2022/01/14 02:45:18;;;;;;;1999.90;999.90;;;;;;;-1.32;64.57;102846.75;4985227;28;96468;-71
2022/01/14 02:47:46;;;;;;;1999.90;999.90;;;;;;;-1.34;64.41;102830.88;4985773;28;99960;-73
2022/01/14 02:50:18;;;;;;;1999.90;999.90;;;;;;;-1.33;64.78;102829.22;4987042;28;98655;-71
2022/01/14 02:52:57;;;;;;;1999.90;999.90;;;;;;;-1.38;65.16;102838.28;4983725;28;97525;-71
2022/01/14 02:55:29;;;;;;;1999.90;999.90;;;;;;;-1.39;65.10;102839.03;4987896;28;97046;-71
2022/01/14 02:57:58;;;;;;;1999.90;999.90;;;;;;;-1.40;64.68;102829.34;4987799;28;97946;-71
2022/01/14 03:00:29;;;;;;;1999.90;999.90;;;;;;;-1.39;64.67;102832.13;4982313;28;101130;-71
2022/01/14 03:02:59;;;;;;;1999.90;999.90;;;;;;;-1.39;65.12;102834.72;4982729;28;97145;-71
2022/01/14 03:05:28;;;;;;;1999.90;999.90;;;;;;;-1.38;65.10;102830.44;4985619;28;96857;-71
2022/01/14 03:07:58;;;;;;;1999.90;999.90;;;;;;;-1.36;64.34;102821.06;4983421;28;98496;-72
2022/01/14 03:10:26;;;;;;;1999.90;999.90;;;;;;;-1.34;65.19;102822.16;4984202;28;99858;-72
2022/01/14 03:12:54;;;;;;;1999.90;999.90;;;;;;;-1.34;64.97;102814.31;4986311;28;97192;-72
2022/01/14 03:15:21;;;;;;;1999.90;999.90;;;;;;;-1.35;65.20;102818.63;4986217;28;99071;-72
2022/01/14 03:17:49;;;;;;;1999.90;999.90;;;;;;;-1.34;64.85;102809.09;4984026;28;97787;-71
2022/01/14 03:20:45;;;;;;;1999.90;999.90;;;;;;;-1.32;64.92;102811.06;4984201;28;97924;-71
2022/01/14 03:23:14;;;;;;;1999.90;999.90;;;;;;;-1.31;64.34;102810.31;4982134;28;97032;-72
2022/01/14 03:25:48;;;;;;;1999.90;999.90;;;;;;;-1.29;64.40;102800.03;4983391;28;97885;-71
2022/01/14 03:28:18;;;;;;;1999.90;999.90;;;;;;;-1.26;64.13;102813.38;4987761;28;98898;-72
2022/01/14 03:30:45;;;;;;;1999.90;999.90;;;;;;;-1.24;64.38;102818.00;4986011;28;97752;-72
2022/01/14 03:33:13;;;;;;;1999.90;999.90;;;;;;;-1.24;64.45;102809.25;4983751;28;96908;-70
2022/01/14 03:35:41;;;;;;;1999.90;999.90;;;;;;;-1.23;64.10;102818.94;4984736;28;100156;-72
2022/01/14 03:38:08;;;;;;;1999.90;999.90;;;;;;;-1.23;64.53;102816.31;4983810;28;98906;-72
2022/01/14 03:40:38;;;;;;;1999.90;999.90;;;;;;;-1.24;64.12;102806.63;4983057;28;99267;-72
2022/01/14 03:43:05;;;;;;;1999.90;999.90;;;;;;;-1.23;64.39;102805.88;4985213;28;96755;-70
2022/01/14 03:45:33;;;;;;;1999.90;999.90;;;;;;;-1.25;64.26;102812.63;4985320;28;97205;-72
2022/01/14 03:48:01;;;;;;;1999.90;999.90;;;;;;;-1.29;64.83;102808.78;4989362;28;99173;-70
2022/01/14 03:50:29;;;;;;;1999.90;999.90;;;;;;;-1.29;64.61;102805.25;4982052;28;99627;-72
2022/01/14 03:52:56;;;;;;;1999.90;999.90;;;;;;;-1.27;64.53;102799.41;4983650;28;97914;-72
2022/01/14 03:55:24;;;;;;;1999.90;999.90;;;;;;;-1.23;64.36;102796.31;4985768;28;99416;-72
2022/01/14 03:57:53;;;;;;;1999.90;999.90;;;;;;;-1.21;64.74;102796.47;4986253;28;97689;-72
2022/01/14 04:00:21;;;;;;;1999.90;999.90;;;;;;;-1.23;64.42;102782.38;4984520;28;100637;-72
2022/01/14 04:02:49;;;;;;;1999.90;999.90;;;;;;;-1.24;64.48;102786.66;4986501;28;98675;-71
2022/01/14 04:05:17;;;;;;;1999.90;999.90;;;;;;;-1.22;64.86;102787.75;5005807;28;97564;-72
2022/01/14 04:07:44;;;;;;;1999.90;999.90;;;;;;;-1.19;64.24;102774.97;4981545;28;100783;-73
2022/01/14 04:10:13;;;;;;;1999.90;999.90;;;;;;;-1.20;64.65;102765.31;4983242;28;100403;-72
2022/01/14 04:12:49;;;;;;;1999.90;999.90;;;;;;;-1.22;64.43;102760.69;4983757;28;96918;-72
2022/01/14 04:15:37;;;;;;;1999.90;999.90;;;;;;;-1.26;64.65;102762.06;4986460;28;97149;-72
2022/01/14 04:18:06;;;;;;;1999.90;999.90;;;;;;;-1.27;64.66;102764.53;4982486;28;98700;-71
2022/01/14 04:20:35;;;;;;;1999.90;999.90;;;;;;;-1.24;65.01;102770.06;4983553;28;99707;-72
2022/01/14 04:23:04;;;;;;;1999.90;999.90;;;;;;;-1.22;64.40;102755.47;4983638;28;101168;-72
2022/01/14 04:25:32;;;;;;;1999.90;999.90;;;;;;;-1.22;64.82;102752.84;4982960;28;98706;-71
2022/01/14 04:28:00;;;;;;;1999.90;999.90;;;;;;;-1.20;64.74;102756.53;4985051;28;97659;-72
2022/01/14 04:30:29;;;;;;;1999.90;999.90;;;;;;;-1.19;64.32;102750.53;4984223;28;98212;-72
2022/01/14 04:32:57;;;;;;;1999.90;999.90;;;;;;;-1.19;64.65;102747.94;5003959;28;97144;-72
2022/01/14 04:35:25;;;;;;;1999.90;999.90;;;;;;;-1.21;64.89;102742.56;4988834;28;96953;-71
2022/01/14 04:37:53;;;;;;;1999.90;999.90;;;;;;;-1.25;64.65;102752.56;4987709;28;96786;-72
2022/01/14 04:40:21;;;;;;;1999.90;999.90;;;;;;;-1.28;65.03;102742.72;4987555;28;97748;-72
2022/01/14 04:42:51;;;;;;;1999.90;999.90;;;;;;;-1.26;64.86;102741.19;4989316;28;96829;-71
2022/01/14 04:45:29;;;;;;;1999.90;999.90;;;;;;;-1.23;64.56;102746.69;4989744;28;96854;-72
2022/01/14 04:47:58;;;;;;;1999.90;999.90;;;;;;;-1.21;64.89;102749.47;4988179;28;97990;-72
2022/01/14 04:50:26;;;;;;;1999.90;999.90;;;;;;;-1.20;64.59;102748.72;4986736;28;101342;-72
2022/01/14 04:52:54;;;;;;;1999.90;999.90;;;;;;;-1.23;65.03;102753.63;4967779;28;98670;-72
2022/01/14 04:55:23;;;;;;;1999.90;999.90;;;;;;;-1.24;64.59;102737.03;4987466;28;97352;-73
2022/01/14 04:57:52;;;;;;;1999.90;999.90;;;;;;;-1.23;64.44;102737.97;4986987;28;98050;-71
2022/01/14 05:00:21;;;;;;;1999.90;999.90;;;;;;;-1.23;64.76;102743.19;4986506;28;96893;-71
2022/01/14 05:02:51;;;;;;;1999.90;999.90;;;;;;;-1.24;64.49;102743.94;4986523;28;97361;-71
2022/01/14 05:05:22;;;;;;;1999.90;999.90;;;;;;;-1.22;64.24;102740.72;4987789;28;96822;-71
2022/01/14 05:07:52;;;;;;;1999.90;999.90;;;;;;;-1.27;64.83;102747.16;4984804;28;99975;-71
2022/01/14 05:10:34;;;;;;;1999.90;999.90;;;;;;;-1.27;64.62;102754.09;4987036;28;97747;-71
2022/01/14 05:13:02;;;;;;;1999.90;999.90;;;;;;;-1.29;64.88;102735.66;4984289;28;99826;-71
2022/01/14 05:15:30;;;;;;;1999.90;999.90;;;;;;;-1.29;65.24;102735.66;4989248;28;96809;-71
2022/01/14 05:17:58;;;;;;;1999.90;999.90;;;;;;;-1.30;64.83;102744.25;4985969;28;98241;-72
2022/01/14 05:20:27;;;;;;;1999.90;999.90;;;;;;;-1.34;65.65;102749.03;4986767;28;98924;-71
2022/01/14 05:22:54;;;;;;;1999.90;999.90;;;;;;;-1.34;65.29;102735.97;4992781;28;97310;-72
2022/01/14 05:25:22;;;;;;;1999.90;999.90;;;;;;;-1.34;65.45;102735.97;4994069;28;97285;-71
2022/01/14 05:27:50;;;;;;;1999.90;999.90;;;;;;;-1.36;65.32;102727.06;4997873;28;99461;-72
2022/01/14 05:30:18;;;;;;;1999.90;999.90;;;;;;;-1.34;65.65;102728.16;4992042;28;99358;-71
2022/01/14 05:32:47;;;;;;;1999.90;999.90;;;;;;;-1.33;64.97;102719.53;4995976;28;98260;-72
2022/01/14 05:35:16;;;;;;;1999.90;999.90;;;;;;;-1.32;65.37;102718.78;4992378;28;97191;-73
2022/01/14 05:37:45;;;;;;;1999.90;999.90;;;;;;;-1.29;64.64;102724.28;4985322;28;99468;-72
2022/01/14 05:40:14;;;;;;;1999.90;999.90;;;;;;;-1.27;65.21;102721.03;4984608;28;100304;-72
2022/01/14 05:42:43;;;;;;;1999.90;999.90;;;;;;;-1.24;64.97;102721.38;4984564;28;97475;-73
2022/01/14 05:45:12;;;;;;;1999.90;999.90;;;;;;;-1.21;64.67;102712.91;4987226;28;97285;-72
2022/01/14 05:47:40;;;;;;;1999.90;999.90;;;;;;;-1.20;64.82;102712.16;4981937;28;97576;-71
2022/01/14 05:50:11;;;;;;;1999.90;999.90;;;;;;;-1.18;64.96;102711.53;5001473;28;99570;-72
2022/01/14 05:52:38;;;;;;;1999.90;999.90;;;;;;;-1.19;65.03;102716.59;4986266;28;96927;-72
2022/01/14 05:55:10;;;;;;;1999.90;999.90;;;;;;;-1.21;65.09;102708.59;4985891;28;98368;-72
2022/01/14 05:57:38;;;;;;;1999.90;999.90;;;;;;;-1.22;64.61;102703.22;4985263;28;97611;-71
2022/01/14 06:00:09;;;;;;;1999.90;999.90;;;;;;;-1.23;65.06;102701.41;4986672;28;97940;-72
2022/01/14 06:02:43;;;;;;;1999.90;999.90;;;;;;;-1.22;64.89;102696.31;4984375;28;97653;-73
2022/01/14 06:05:11;;;;;;;1999.90;999.90;;;;;;;-1.23;65.25;102702.31;4982047;28;97146;-72
2022/01/14 06:07:39;;;;;;;1999.90;999.90;;;;;;;-1.27;65.46;102683.59;4980928;28;100343;-72
2022/01/14 06:10:09;;;;;;;1999.90;999.90;;;;;;;-1.29;65.37;102685.13;4985814;28;97975;-72
2022/01/14 06:12:37;;;;;;;1999.90;999.90;;;;;;;-1.27;65.17;102697.53;4983075;28;97233;-72
2022/01/14 06:15:06;;;;;;;1999.90;999.90;;;;;;;-1.28;65.04;102695.72;4986428;28;97380;-72
2022/01/14 06:17:34;;;;;;;1999.90;999.90;;;;;;;-1.31;65.63;102678.81;4984464;28;100946;-72
2022/01/14 06:20:03;;;;;;;1999.90;999.90;;;;;;;-1.30;65.01;102685.88;4987039;28;98060;-70
2022/01/14 06:22:30;;;;;;;1999.90;999.90;;;;;;;-1.32;65.17;102674.38;4985949;28;98860;-71
2022/01/14 06:25:00;;;;;;;1999.90;999.90;;;;;;;-1.30;65.12;102659.75;4972145;28;97938;-72
2022/01/14 06:27:32;;;;;;;1999.90;999.90;;;;;;;-1.33;64.67;102668.22;5003112;28;98448;-72
2022/01/14 06:30:00;;;;;;;1999.90;999.90;;;;;;;-1.37;65.24;102676.53;4985375;28;98678;-72
2022/01/14 06:32:28;;;;;;;1999.90;999.90;;;;;;;-1.36;65.03;102680.06;4986202;28;96817;-72
2022/01/14 06:34:55;;;;;;;1999.90;999.90;;;;;;;-1.38;64.84;102679.00;4984597;28;97296;-72
2022/01/14 06:37:23;;;;;;;1999.90;999.90;;;;;;;-1.35;65.15;102689.72;4985669;28;97232;-72
2022/01/14 06:39:52;;;;;;;1999.90;999.90;;;;;;;-1.29;65.11;102692.97;4999756;28;98984;-72
2022/01/14 06:42:19;;;;;;;1999.90;999.90;;;;;;;-1.28;64.61;102702.63;4986495;28;96823;-73
2022/01/14 06:44:49;;;;;;;1999.90;999.90;;;;;;;-1.27;64.75;102712.31;4971486;28;96838;-72
2022/01/14 06:47:16;;;;;;;1999.90;999.90;;;;;;;-1.25;64.99;102716.00;4987060;28;97641;-73
2022/01/14 06:49:44;;;;;;;1999.90;999.90;;;;;;;-1.20;64.86;102720.91;4987006;28;97847;-73
2022/01/14 06:52:12;;;;;;;1999.90;999.90;;;;;;;-1.20;65.06;102705.25;4988988;28;96982;-73
2022/01/14 06:54:40;;;;;;;1999.90;999.90;;;;;;;-1.17;64.79;102713.38;4988619;28;96791;-72
2022/01/14 06:57:07;;;;;;;1999.90;999.90;;;;;;;-1.13;64.51;102720.75;4985823;28;99294;-72
2022/01/14 06:59:35;;;;;;;1999.90;999.90;;;;;;;-1.09;64.63;102717.66;4984511;28;99290;-72
2022/01/14 07:02:05;;;;;;;1999.90;999.90;;;;;;;-1.09;64.54;102716.72;4986516;28;98143;-72
2022/01/14 07:04:33;;;;;;;1999.90;999.90;;;;;;;-1.07;64.24;102723.03;4988771;28;96830;-72
2022/01/14 07:07:02;;;;;;;1999.90;999.90;;;;;;;-1.07;64.62;102723.03;4987173;28;99238;-70
2022/01/14 07:09:31;;;;;;;1999.90;999.90;;;;;;;-1.07;64.81;102717.81;4987879;28;97561;-71
2022/01/14 07:12:01;;;;;;;1999.90;999.90;;;;;;;-1.05;64.78;102713.66;4987262;28;96812;-72
2022/01/14 07:14:29;;;;;;;1999.90;999.90;;;;;;;-1.03;64.37;102720.84;4990283;28;97274;-71
2022/01/14 07:16:57;;;;;;;1999.90;999.90;;;;;;;-1.04;64.34;102719.03;4989347;28;97412;-70
2022/01/14 07:19:26;;;;;;;1999.90;999.90;;;;;;;-1.02;64.04;102721.78;4982766;28;98766;-70
2022/01/14 07:21:54;;;;;;;1999.90;999.90;;;;;;;-1.01;64.15;102713.16;4980037;28;98087;-71
2022/01/14 07:24:22;;;;;;;1999.90;999.90;;;;;;;-1.01;64.28;102713.16;4982387;28;97955;-72
2022/01/14 07:26:51;;;;;;;1999.90;999.90;;;;;;;-1.00;64.27;102718.56;4986536;28;97688;-70
2022/01/14 07:29:18;;;;;;;1999.90;999.90;;;;;;;-0.98;64.24;102718.72;4985506;28;97382;-70
2022/01/14 07:31:56;;;;;;;1999.90;999.90;;;;;;;-0.97;63.86;102704.84;4987470;28;96734;-71
2022/01/14 07:34:24;;;;;;;1999.90;999.90;;;;;;;-0.95;63.73;102708.53;4988448;28;96830;-71
2022/01/14 07:36:53;;;;;;;1999.90;999.90;;;;;;;-0.95;63.89;102705.94;4984109;28;98725;-70
2022/01/14 07:39:22;;;;;;;1999.90;999.90;;;;;;;-0.95;64.14;102711.16;4982546;28;99279;-70
2022/01/14 07:41:50;;;;;;;1999.90;999.90;;;;;;;-0.93;63.99;102707.94;4987025;28;96771;-70
2022/01/14 07:44:18;;;;;;;1999.90;999.90;;;;;;;-0.90;63.72;102715.13;4978903;28;97902;-70
2022/01/14 07:46:47;;;;;;;1999.90;999.90;;;;;;;-0.92;63.96;102706.22;4984932;28;100393;-71
2022/01/14 07:49:15;;;;;;;1999.90;999.90;;;;;;;-0.91;63.69;102702.84;4968183;28;100774;-69
2022/01/14 07:51:43;;;;;;;1999.90;999.90;;;;;;;-0.89;63.68;102710.09;4981140;28;97892;-69
2022/01/14 07:54:12;;;;;;;1999.90;999.90;;;;;;;-0.90;63.99;102708.22;4989408;28;97302;-70
2022/01/14 07:56:45;;;;;;;1999.90;999.90;;;;;;;-0.88;63.75;102717.13;4967211;28;99229;-70
2022/01/14 07:59:13;;;;;;;1999.90;999.90;;;;;;;-0.86;63.75;102712.97;4987283;28;97752;-69
2022/01/14 08:01:42;;;;;;;1999.90;999.90;;;;;;;-0.86;63.75;102722.50;4987493;28;97396;-69
2022/01/14 08:04:10;;;;;;;1999.90;999.90;;;;;;;-0.86;63.70;102730.34;4986569;28;99698;-68
2022/01/14 08:06:44;;;;;;;1999.90;999.90;;;;;;;-0.85;63.92;102732.22;4991461;28;98890;-69
2022/01/14 08:09:15;;;;;;;1999.90;999.90;;;;;;;-0.84;63.77;102734.97;4993303;28;98474;-70
2022/01/14 08:11:42;;;;;;;1999.90;999.90;;;;;;;-0.85;63.99;102745.28;4989401;28;97287;-71
2022/01/14 08:14:11;;;;;;;1999.90;999.90;;;;;;;-0.87;63.70;102738.97;5008121;28;96712;-71
2022/01/14 08:16:39;;;;;;;1999.90;999.90;;;;;;;-0.88;64.03;102747.56;4991165;28;97107;-70
2022/01/14 08:19:07;;;;;;;1999.90;999.90;;;;;;;-0.86;63.69;102754.81;4992066;28;97681;-68
2022/01/14 08:21:35;;;;;;;1999.90;999.90;;;;;;;-0.89;64.37;102750.97;4987485;28;96760;-70
2022/01/14 08:24:03;;;;;;;1999.90;999.90;;;;;;;-0.83;63.95;102762.94;4989734;28;97019;-69
2022/01/14 08:26:32;;;;;;;1999.90;999.90;;;;;;;-0.78;64.40;102762.47;4988256;28;97239;-70
2022/01/14 08:29:00;;;;;;;1999.90;999.90;;;;;;;-0.72;63.79;102752.63;4987111;28;99209;-71
2022/01/14 08:31:27;;;;;;;1999.90;999.90;;;;;;;-0.71;63.69;102750.16;4987441;28;96864;-72
2022/01/14 08:33:55;;;;;;;1999.90;999.90;;;;;;;-0.70;63.60;102738.91;4990315;28;96731;-71
2022/01/14 08:36:23;;;;;;;1999.90;999.90;;;;;;;-0.69;63.83;102740.75;4987688;28;100437;-71
2022/01/14 08:38:51;;;;;;;1999.90;999.90;;;;;;;-0.69;63.42;102721.53;4964620;28;98823;-71
2022/01/14 08:41:20;;;;;;;1999.90;999.90;;;;;;;-0.67;64.01;102728.78;4980297;28;98107;-71
2022/01/14 08:43:50;;;;;;;1999.90;999.90;;;;;;;-0.66;63.50;102734.88;4991921;28;96905;-72
2022/01/14 08:46:38;;;;;;;1999.90;999.90;;;;;;;-0.65;63.77;102747.22;4993059;28;97623;-74
2022/01/14 08:49:05;;;;;;;1999.90;999.90;;;;;;;-0.64;63.65;102739.50;4994572;28;100306;-71
2022/01/14 08:51:34;;;;;;;1999.90;999.90;;;;;;;-0.62;63.73;102748.44;4994232;28;98120;-71
2022/01/14 08:54:02;;;;;;;1999.90;999.90;;;;;;;-0.60;63.55;102741.66;4989264;28;96835;-72
2022/01/14 08:56:31;;;;;;;1999.90;999.90;;;;;;;-0.63;64.05;102737.81;4991329;28;97812;-71
2022/01/14 08:59:00;;;;;;;1999.90;999.90;;;;;;;-0.64;64.14;102731.66;4990876;28;97771;-72
2022/01/14 09:01:28;;;;;;;1999.90;999.90;;;;;;;-0.64;64.17;102729.06;4990572;28;96778;-72
2022/01/14 09:03:56;;;;;;;1999.90;999.90;;;;;;;-0.66;63.83;102721.81;4988359;28;96806;-70
2022/01/14 09:06:24;;;;;;;1999.90;999.90;;;;;;;-0.68;64.41;102726.00;4990347;28;98216;-72
2022/01/14 09:08:51;;;;;;;1999.90;999.90;;;;;;;-0.67;63.98;102713.09;4985755;28;98733;-72
2022/01/14 09:11:19;;;;;;;1999.90;999.90;;;;;;;-0.65;64.47;102718.44;4986938;28;97079;-71
2022/01/14 09:13:47;;;;;;;1999.90;999.90;;;;;;;-0.65;64.29;102727.22;4989306;28;97499;-72
2022/01/14 09:16:20;;;;;;;1999.90;999.90;;;;;;;-0.65;64.54;102723.69;4988176;28;98855;-71
2022/01/14 09:18:48;;;;;;;1999.90;999.90;;;;;;;-0.65;64.00;102716.78;4984864;28;100479;-71
2022/01/14 09:21:16;;;;;;;1999.90;999.90;;;;;;;-0.67;64.60;102702.63;4988201;28;97502;-72
2022/01/14 09:23:50;;;;;;;1999.90;999.90;;;;;;;-0.64;64.22;102712.44;4988440;28;97691;-72
2022/01/14 09:26:18;;;;;;;1999.90;999.90;;;;;;;-0.63;64.23;102707.38;4984893;28;100592;-72
2022/01/14 09:28:46;;;;;;;1999.90;999.90;;;;;;;-0.60;64.30;102715.50;4988011;28;98864;-72
2022/01/14 09:31:14;;;;;;;1999.90;999.90;;;;;;;-0.61;64.26;102713.66;4989661;28;96868;-71
2022/01/14 09:33:43;;;;;;;1999.90;999.90;;;;;;;-0.58;64.02;102708.75;4972048;28;96812;-72
2022/01/14 09:36:11;;;;;;;1999.90;999.90;;;;;;;-0.57;64.11;102710.56;4989283;28;97618;-71
2022/01/14 09:38:39;;;;;;;1999.90;999.90;;;;;;;-0.55;64.30;102709.03;4987533;28;97569;-71
2022/01/14 09:41:07;;;;;;;1999.90;999.90;;;;;;;-0.51;64.28;102703.31;4983964;28;96788;-71
2022/01/14 09:43:38;;;;;;;1999.90;999.90;;;;;;;-0.47;64.12;102696.69;4982846;28;97179;-70
2022/01/14 09:46:10;;;;;;;1999.90;999.90;;;;;;;-0.43;63.79;102697.09;4980584;28;98022;-71
2022/01/14 09:48:39;;;;;;;1999.90;999.90;;;;;;;-0.41;63.67;102692.94;4988702;28;97668;-71
2022/01/14 09:51:09;;;;;;;1999.90;999.90;;;;;;;-0.39;64.02;102686.16;4984952;28;96747;-71
2022/01/14 09:53:39;;;;;;;1999.90;999.90;;;;;;;-0.37;63.79;102696.78;4988889;28;96939;-73
2022/01/14 09:56:07;;;;;;;1999.90;999.90;;;;;;;-0.39;63.98;102707.09;4989403;28;99019;-71
2022/01/14 09:58:37;;;;;;;1999.90;999.90;;;;;;;-0.40;64.15;102707.88;4991295;28;98160;-71
2022/01/14 10:01:09;;;;;;;1999.90;999.90;;;;;;;-0.40;64.27;102709.56;4986234;28;96862;-71
2022/01/14 10:03:49;;;;;;;1999.90;999.90;;;;;;;-0.40;64.40;102700.03;4987892;28;97301;-71
2022/01/14 10:06:39;;;;;;;1999.90;999.90;;;;;;;-0.39;64.16;102696.63;4985491;28;97745;-71
2022/01/14 10:09:10;;;;;;;1999.90;999.90;;;;;;;-0.35;64.12;102701.38;4985683;28;99461;-72
2022/01/14 10:11:39;;;;;;;1999.90;999.90;;;;;;;-0.32;63.69;102712.13;4986503;28;96877;-71
2022/01/14 10:14:09;;;;;;;1999.90;999.90;;;;;;;-0.29;63.74;102698.44;4991827;28;97001;-72
2022/01/14 10:16:40;;;;;;;1999.90;999.90;;;;;;;-0.27;63.90;102708.28;4987729;28;98714;-72
2022/01/14 10:19:22;;;;;;;1999.90;999.90;;;;;;;-0.26;63.95;102693.47;4984429;28;97519;-71
2022/01/14 10:21:52;;;;;;;1999.90;999.90;;;;;;;-0.18;63.52;102710.84;4990029;28;96755;-73
2022/01/14 10:24:20;;;;;;;1999.90;999.90;;;;;;;-0.17;63.67;102700.50;4987479;28;96592;-71
2022/01/14 10:26:50;;;;;;;1999.90;999.90;;;;;;;-0.15;63.68;102698.03;4988839;28;97717;-72
2022/01/14 10:29:29;;;;;;;1999.90;999.90;;;;;;;-0.11;63.56;102697.56;4986296;28;98499;-73
2022/01/14 10:31:59;;;;;;;1999.90;999.90;;;;;;;-0.12;63.44;102688.78;4987717;28;96797;-72
2022/01/14 10:34:28;;;;;;;1999.90;999.90;;;;;;;-0.08;63.23;102685.66;4988026;28;96860;-72
2022/01/14 10:37:12;;;;;;;1999.90;999.90;;;;;;;-0.07;63.35;102698.00;4991164;28;97924;-72
2022/01/14 10:39:45;;;;;;;1999.90;999.90;;;;;;;-0.00;63.23;102686.41;4986128;28;98631;-71
2022/01/14 10:42:25;;;;;;;1999.90;999.90;;;;;;;0.04;63.32;102684.22;4988076;28;97071;-69
2022/01/14 10:45:13;;;;;;;1999.90;999.90;;;;;;;0.05;63.60;102674.66;4987917;28;97523;-72
2022/01/14 10:47:41;;;;;;;1999.90;999.90;;;;;;;0.07;63.48;102684.50;5007061;28;98894;-73
2022/01/14 10:50:09;;;;;;;1999.90;999.90;;;;;;;0.08;63.31;102681.09;4993516;28;98671;-73
2022/01/14 10:52:38;;;;;;;1999.90;999.90;;;;;;;0.11;63.30;102678.78;4993842;28;96803;-72
2022/01/14 10:55:06;;;;;;;1999.90;999.90;;;;;;;0.14;63.17;102679.06;4993282;28;96792;-75
2022/01/14 10:57:34;;;;;;;1999.90;999.90;;;;;;;0.14;63.10;102663.34;4989399;28;97610;-72
2022/01/14 11:00:15;;;;;;;1999.90;999.90;;;;;;;0.16;62.93;102664.41;5003606;28;99410;-71
2022/01/14 11:02:45;;;;;;;1999.90;999.90;;;;;;;0.18;63.36;102649.78;4987665;28;97364;-73
2022/01/14 11:05:15;;;;;;;1999.90;999.90;;;;;;;0.21;62.86;102642.19;4986576;28;97068;-72
2022/01/14 11:07:46;;;;;;;1999.90;999.90;;;;;;;0.23;63.02;102641.44;4989874;28;100461;-72
2022/01/14 11:10:18;;;;;;;1999.90;999.90;;;;;;;0.25;62.86;102627.72;4988870;28;99676;-72